createdAt,value
2019-03-04T00:00:17.445Z,6.63
2019-03-04T00:02:46.000Z,6.53
2019-03-04T00:05:14.586Z,6.33
2019-03-04T00:07:43.140Z,5.93
2019-03-04T00:10:11.787Z,6.47
2019-03-04T00:12:40.338Z,8.33
2019-03-04T00:15:09.083Z,6.77
2019-03-04T00:17:37.633Z,8.87
2019-03-04T00:20:08.650Z,7.87
2019-03-04T00:22:37.210Z,8.43
2019-03-04T00:25:06.065Z,8.20
2019-03-04T00:27:34.623Z,7.23
2019-03-04T00:30:03.468Z,9.40
2019-03-04T00:32:32.022Z,5.80
2019-03-04T00:35:00.596Z,8.50
2019-03-04T00:37:29.145Z,7.33
2019-03-04T00:39:57.741Z,6.00
2019-03-04T00:42:26.282Z,6.60
2019-03-04T00:44:54.872Z,4.80
2019-03-04T00:47:23.418Z,8.87
2019-03-04T00:49:51.990Z,7.97
2019-03-04T00:52:20.547Z,7.30
2019-03-04T00:54:49.114Z,8.30
2019-03-04T00:57:17.675Z,6.27
2019-03-04T00:59:46.250Z,6.20
2019-03-04T01:02:14.806Z,8.03
2019-03-04T01:04:43.377Z,6.37
2019-03-04T01:07:11.935Z,6.00
2019-03-04T01:09:40.490Z,6.30
2019-03-04T01:12:09.068Z,10.10
2019-03-04T01:14:37.617Z,7.23
2019-03-04T01:17:06.195Z,6.50
2019-03-04T01:19:34.742Z,6.57
2019-03-04T01:22:03.323Z,5.80
2019-03-04T01:24:31.875Z,7.60
2019-03-04T01:27:00.452Z,7.47
2019-03-04T01:29:29.007Z,6.60
2019-03-04T01:31:57.577Z,5.50
2019-03-04T01:34:26.138Z,7.03
2019-03-04T01:36:54.711Z,8.03
2019-03-04T01:39:23.269Z,7.67
2019-03-04T01:41:51.842Z,7.40
2019-03-04T01:44:20.390Z,7.67
2019-03-04T01:46:48.972Z,6.87
2019-03-04T01:49:17.527Z,7.03
2019-03-04T01:51:46.111Z,8.93
2019-03-04T01:54:14.657Z,6.47
2019-03-04T01:56:43.234Z,6.57
2019-03-04T01:59:11.794Z,6.97
2019-03-04T02:01:40.367Z,8.20
2019-03-04T02:04:08.986Z,6.27
2019-03-04T02:06:37.565Z,4.23
2019-03-04T02:09:06.755Z,6.47
2019-03-04T02:11:35.337Z,5.57
2019-03-04T02:14:03.885Z,8.63
2019-03-04T02:16:32.458Z,7.17
2019-03-04T02:19:01.013Z,7.17
2019-03-04T02:21:29.589Z,9.27
2019-03-04T02:24:01.209Z,7.50
2019-03-04T02:26:30.514Z,6.10
2019-03-04T02:28:59.070Z,5.77
2019-03-04T02:31:27.718Z,6.27
2019-03-04T02:33:56.263Z,5.80
2019-03-04T02:36:24.836Z,5.03
2019-03-04T02:38:53.391Z,6.33
2019-03-04T02:41:21.975Z,5.20
2019-03-04T02:43:50.519Z,8.97
2019-03-04T02:46:19.118Z,7.87
2019-03-04T02:48:47.643Z,6.23
2019-03-04T02:51:16.219Z,5.67
2019-03-04T02:53:44.771Z,4.97
2019-03-04T02:56:13.514Z,5.53
2019-03-04T02:58:42.067Z,5.93
2019-03-04T03:01:10.643Z,6.03
2019-03-04T03:03:39.193Z,6.60
2019-03-04T03:06:07.767Z,7.23
2019-03-04T03:08:36.319Z,6.27
2019-03-04T03:11:04.899Z,6.20
2019-03-04T03:13:33.471Z,6.17
2019-03-04T03:16:02.043Z,7.33
2019-03-04T03:18:30.605Z,6.77
2019-03-04T03:20:59.179Z,7.03
2019-03-04T03:23:27.730Z,6.17
2019-03-04T03:25:56.307Z,6.37
2019-03-04T03:28:24.860Z,6.33
2019-03-04T03:30:53.481Z,5.67
2019-03-04T03:33:22.060Z,8.23
2019-03-04T03:35:50.613Z,6.83
2019-03-04T03:38:19.194Z,7.10
2019-03-04T03:40:47.745Z,5.00
2019-03-04T03:43:16.321Z,5.80
2019-03-04T03:45:44.893Z,6.40
2019-03-04T03:48:13.466Z,4.53
2019-03-04T03:50:42.018Z,7.93
2019-03-04T03:53:10.599Z,5.33
2019-03-04T03:55:39.156Z,6.07
2019-03-04T03:58:07.731Z,5.13
2019-03-04T04:00:36.287Z,5.33
2019-03-04T04:03:04.943Z,6.87
2019-03-04T04:05:33.487Z,7.20
2019-03-04T04:08:02.081Z,8.03
2019-03-04T04:10:30.628Z,8.73
2019-03-04T04:12:59.207Z,5.83
2019-03-04T04:15:27.759Z,7.23
2019-03-04T04:17:56.342Z,7.53
2019-03-04T04:20:24.894Z,5.73
2019-03-04T04:22:53.467Z,7.77
2019-03-04T04:25:22.018Z,5.83
2019-03-04T04:27:50.590Z,6.43
2019-03-04T04:30:26.552Z,5.73
2019-03-04T04:32:55.126Z,7.37
2019-03-04T04:35:23.682Z,4.80
2019-03-04T04:37:52.263Z,6.77
2019-03-04T04:40:20.814Z,6.00
2019-03-04T04:42:49.390Z,7.83
2019-03-04T04:45:17.943Z,5.13
2019-03-04T04:47:46.518Z,8.63
2019-03-04T04:50:17.576Z,6.73
2019-03-04T04:52:46.149Z,6.90
2019-03-04T04:55:14.702Z,4.40
2019-03-04T04:57:43.276Z,5.77
2019-03-04T05:00:16.950Z,8.20
2019-03-04T05:02:45.534Z,5.40
2019-03-04T05:05:14.361Z,7.60
2019-03-04T05:07:43.405Z,4.17
2019-03-04T05:10:17.275Z,5.13
2019-03-04T05:12:45.990Z,6.27
2019-03-04T05:15:16.274Z,7.03
2019-03-04T05:17:44.845Z,5.93
2019-03-04T05:20:24.819Z,5.37
2019-03-04T05:22:53.386Z,6.97
2019-03-04T05:25:21.942Z,5.00
2019-03-04T05:27:50.514Z,4.33
2019-03-04T05:30:20.503Z,7.77
2019-03-04T05:32:49.075Z,5.20
2019-03-04T05:35:17.650Z,5.10
2019-03-04T05:37:46.201Z,4.87
2019-03-04T05:40:19.501Z,5.40
2019-03-04T05:42:48.545Z,5.40
2019-03-04T05:45:18.036Z,5.30
2019-03-04T05:47:46.678Z,4.00
2019-03-04T05:50:25.822Z,6.23
2019-03-04T05:52:54.413Z,8.20
2019-03-04T05:55:22.949Z,6.37
2019-03-04T05:57:51.517Z,5.03
2019-03-04T06:00:25.164Z,4.47
2019-03-04T06:02:56.950Z,4.90
2019-03-04T06:05:25.498Z,6.20
2019-03-04T06:07:55.713Z,6.40
2019-03-04T06:10:24.266Z,6.30
2019-03-04T06:12:52.838Z,6.33
2019-03-04T06:15:21.761Z,6.27
2019-03-04T06:17:50.334Z,5.43
2019-03-04T06:20:21.810Z,4.23
2019-03-04T06:22:50.385Z,4.00
2019-03-04T06:25:21.396Z,4.77
2019-03-04T06:27:50.034Z,5.17
2019-03-04T06:30:21.295Z,5.40
2019-03-04T06:32:49.866Z,5.33
2019-03-04T06:35:18.490Z,5.03
2019-03-04T06:37:47.065Z,4.60
2019-03-04T06:40:20.150Z,4.03
2019-03-04T06:42:48.729Z,6.07
2019-03-04T06:45:18.319Z,3.47
2019-03-04T06:47:46.896Z,4.27
2019-03-04T06:50:49.509Z,2.73
2019-03-04T06:53:36.280Z,2.73
2019-03-04T06:56:26.566Z,3.53
2019-03-04T06:59:07.154Z,3.60
2019-03-04T07:01:44.800Z,2.70
2019-03-04T07:04:31.314Z,3.80
2019-03-04T07:06:59.926Z,4.07
2019-03-04T07:09:28.451Z,3.53
2019-03-04T07:11:57.006Z,2.30
2019-03-04T07:14:25.584Z,2.10
2019-03-04T07:16:54.159Z,2.03
2019-03-04T07:19:22.721Z,3.03
2019-03-04T07:21:51.279Z,2.40
2019-03-04T07:24:19.859Z,2.97
2019-03-04T07:26:48.414Z,3.53
2019-03-04T07:29:16.986Z,3.10
2019-03-04T07:31:45.546Z,3.83
2019-03-04T07:34:14.122Z,3.20
2019-03-04T07:36:42.680Z,1.77
2019-03-04T07:39:12.878Z,1.90
2019-03-04T07:41:41.511Z,2.17
2019-03-04T07:44:10.093Z,2.33
2019-03-04T07:46:38.643Z,2.93
2019-03-04T07:49:07.223Z,4.30
2019-03-04T07:51:35.778Z,2.77
2019-03-04T07:54:04.691Z,3.37
2019-03-04T07:56:33.247Z,2.73
2019-03-04T07:59:01.825Z,2.63
2019-03-04T08:01:30.386Z,3.00
2019-03-04T08:03:58.966Z,2.70
2019-03-04T08:06:27.517Z,2.87
2019-03-04T08:09:26.397Z,4.40
2019-03-04T08:11:58.014Z,2.60
2019-03-04T08:14:26.609Z,2.87
2019-03-04T08:16:55.155Z,1.70
2019-03-04T08:19:23.731Z,3.47
2019-03-04T08:21:52.282Z,4.47
2019-03-04T08:24:20.867Z,3.13
2019-03-04T08:26:49.486Z,5.63
2019-03-04T08:29:18.130Z,2.57
2019-03-04T08:31:46.690Z,2.33
2019-03-04T08:34:15.276Z,3.37
2019-03-04T08:36:43.825Z,3.30
2019-03-04T08:39:12.408Z,2.47
2019-03-04T08:41:40.959Z,3.93
2019-03-04T08:44:09.535Z,5.57
2019-03-04T08:46:38.092Z,2.67
2019-03-04T08:49:06.676Z,3.00
2019-03-04T08:51:35.229Z,4.07
2019-03-04T08:54:03.816Z,3.03
2019-03-04T08:56:32.375Z,2.70
2019-03-04T08:59:00.952Z,2.60
2019-03-04T09:01:31.210Z,3.70
2019-03-04T09:03:59.733Z,3.93
2019-03-04T09:06:28.286Z,3.43
2019-03-04T09:08:56.913Z,2.73
2019-03-04T09:11:25.418Z,3.23
2019-03-04T09:13:54.001Z,4.43
2019-03-04T09:16:22.659Z,2.47
2019-03-04T09:18:51.242Z,2.60
2019-03-04T09:21:19.795Z,4.60
2019-03-04T09:23:49.970Z,5.00
2019-03-04T09:26:18.730Z,3.30
2019-03-04T09:28:47.313Z,3.30
2019-03-04T09:31:15.863Z,3.40
2019-03-04T09:33:44.419Z,2.37
2019-03-04T09:36:13.004Z,3.43
2019-03-04T09:38:41.565Z,1.80
2019-03-04T09:41:10.134Z,4.57
2019-03-04T09:43:38.690Z,3.57
2019-03-04T09:46:07.267Z,3.27
2019-03-04T09:48:35.826Z,5.10
2019-03-04T09:51:04.412Z,2.70
2019-03-04T09:53:39.496Z,4.30
2019-03-04T09:56:03.202Z,2.67
2019-03-04T09:58:31.754Z,3.57
2019-03-04T10:01:06.226Z,2.30
2019-03-04T10:03:40.638Z,3.13
2019-03-04T10:06:47.153Z,2.87
2019-03-04T10:09:33.659Z,5.03
2019-03-04T10:12:29.291Z,0.83
2019-03-04T10:15:08.559Z,0.73
2019-03-04T10:17:55.021Z,1.33
2019-03-04T10:20:47.578Z,0.87
2019-03-04T10:23:37.119Z,1.00
2019-03-04T10:26:11.577Z,1.23
2019-03-04T10:29:10.526Z,1.37
2019-03-04T10:31:42.154Z,0.87
2019-03-04T10:34:36.171Z,1.30
2019-03-04T10:37:33.682Z,2.17
2019-03-04T10:40:15.657Z,1.70
2019-03-04T10:42:50.129Z,0.70
2019-03-04T10:45:30.388Z,3.00
2019-03-04T10:47:58.950Z,0.70
2019-03-04T10:50:27.518Z,2.00
2019-03-04T10:52:56.070Z,1.27
2019-03-04T10:55:24.650Z,1.30
2019-03-04T10:57:53.231Z,0.80
2019-03-04T11:00:21.810Z,0.73
2019-03-04T11:02:50.359Z,0.70
2019-03-04T11:05:18.998Z,0.60
2019-03-04T11:07:47.550Z,0.87
2019-03-04T11:10:16.123Z,3.80
2019-03-04T11:12:44.678Z,0.77
2019-03-04T11:15:19.338Z,1.43
2019-03-04T11:17:47.962Z,2.20
2019-03-04T11:20:16.607Z,1.10
2019-03-04T11:22:45.227Z,0.70
2019-03-04T11:25:14.250Z,2.13
2019-03-04T11:27:42.938Z,2.10
2019-03-04T11:30:21.387Z,1.30
2019-03-04T11:32:50.016Z,1.27
2019-03-04T11:35:18.586Z,1.00
2019-03-04T11:37:47.214Z,2.13
2019-03-04T11:40:26.594Z,1.83
2019-03-04T11:42:55.158Z,1.37
2019-03-04T11:45:23.807Z,1.60
2019-03-04T11:47:52.362Z,3.00
2019-03-04T11:50:21.787Z,2.70
2019-03-04T11:52:50.347Z,2.23
2019-03-04T11:55:24.721Z,1.43
2019-03-04T11:57:53.424Z,2.20
2019-03-04T12:00:41.158Z,1.83
2019-03-04T12:03:09.718Z,1.43
2019-03-04T12:05:38.295Z,3.87
2019-03-04T12:08:06.851Z,1.77
2019-03-04T12:10:35.434Z,1.67
2019-03-04T12:13:04.055Z,3.37
2019-03-04T12:15:32.703Z,1.90
2019-03-04T12:18:01.334Z,2.87
2019-03-04T12:20:29.913Z,1.67
2019-03-04T12:22:58.543Z,1.30
2019-03-04T12:25:27.118Z,1.20
2019-03-04T12:27:55.674Z,1.20
2019-03-04T12:30:27.690Z,1.57
2019-03-04T12:32:56.254Z,1.63
2019-03-04T12:35:24.838Z,2.60
2019-03-04T12:37:53.390Z,2.37
2019-03-04T12:40:23.410Z,2.93
2019-03-04T12:42:51.963Z,3.10
2019-03-04T12:45:33.657Z,4.07
2019-03-04T12:47:54.802Z,2.03
2019-03-04T12:50:25.429Z,1.90
2019-03-04T12:52:54.832Z,2.80
2019-03-04T12:55:23.456Z,4.53
2019-03-04T12:57:52.042Z,3.83
2019-03-04T13:00:25.898Z,4.57
2019-03-04T13:02:57.951Z,1.20
2019-03-04T13:05:24.681Z,3.07
2019-03-04T13:07:53.263Z,2.97
2019-03-04T13:10:21.955Z,2.53
2019-03-04T13:12:50.806Z,3.23
2019-03-04T13:15:26.466Z,1.43
2019-03-04T13:17:55.050Z,1.60
2019-03-04T13:20:28.021Z,3.83
2019-03-04T13:22:56.603Z,1.90
2019-03-04T13:25:25.158Z,3.40
2019-03-04T13:27:53.806Z,1.27
2019-03-04T13:30:34.505Z,2.43
2019-03-04T13:33:03.086Z,1.37
2019-03-04T13:35:39.970Z,2.27
2019-03-04T13:38:08.552Z,0.87
2019-03-04T13:40:37.178Z,1.83
2019-03-04T13:43:05.827Z,1.60
2019-03-04T13:45:34.591Z,2.00
2019-03-04T13:48:03.243Z,2.03
2019-03-04T13:50:32.743Z,3.33
2019-03-04T13:53:01.328Z,3.37
2019-03-04T13:55:29.956Z,2.70
2019-03-04T13:57:58.604Z,1.37
2019-03-04T14:00:32.549Z,1.87
2019-03-04T14:03:01.133Z,1.23
2019-03-04T14:05:29.758Z,2.47
2019-03-04T14:07:58.336Z,2.07
2019-03-04T14:10:35.878Z,2.90
2019-03-04T14:13:04.594Z,1.83
2019-03-04T14:15:38.775Z,1.63
2019-03-04T14:18:07.360Z,4.17
2019-03-04T14:20:35.901Z,3.87
2019-03-04T14:23:04.729Z,2.43
2019-03-04T14:25:33.285Z,3.13
2019-03-04T14:28:01.858Z,2.60
2019-03-04T14:30:30.418Z,3.53
2019-03-04T14:32:59.019Z,2.10
2019-03-04T14:35:27.569Z,3.40
2019-03-04T14:37:56.145Z,2.73
2019-03-04T14:40:24.773Z,2.57
2019-03-04T14:42:55.050Z,1.77
2019-03-04T14:45:27.709Z,2.53
2019-03-04T14:47:56.289Z,4.13
2019-03-04T14:50:24.986Z,2.23
2019-03-04T14:52:53.572Z,4.00
2019-03-04T14:55:36.427Z,3.57
2019-03-04T14:58:05.007Z,2.07
2019-03-04T15:00:42.271Z,3.73
2019-03-04T15:03:20.690Z,2.80
2019-03-04T15:05:41.170Z,3.90
2019-03-04T15:08:09.749Z,2.03
2019-03-04T15:10:38.311Z,3.07
2019-03-04T15:13:06.890Z,1.97
2019-03-04T15:15:35.822Z,2.13
2019-03-04T15:18:04.546Z,2.03
2019-03-04T15:20:34.242Z,1.87
2019-03-04T15:23:02.895Z,1.10
2019-03-04T15:25:32.786Z,2.50
2019-03-04T15:28:21.698Z,0.90
2019-03-04T15:30:55.679Z,1.20
2019-03-04T15:33:24.263Z,2.53
2019-03-04T15:35:52.818Z,1.80
2019-03-04T15:38:21.399Z,1.17
2019-03-04T15:40:50.627Z,1.00
2019-03-04T15:43:19.279Z,2.30
2019-03-04T15:45:49.538Z,0.97
2019-03-04T15:48:22.732Z,1.13
2019-03-04T15:50:51.279Z,1.30
2019-03-04T15:53:19.927Z,2.43
2019-03-04T15:55:48.478Z,2.00
2019-03-04T15:58:17.198Z,3.03
2019-03-04T16:00:45.747Z,2.17
2019-03-04T16:03:14.410Z,2.90
2019-03-04T16:05:43.018Z,2.80
2019-03-04T16:08:12.034Z,1.47
2019-03-04T16:10:40.726Z,1.50
2019-03-04T16:13:09.442Z,2.27
2019-03-04T16:15:43.620Z,1.33
2019-03-04T16:18:12.433Z,2.07
2019-03-04T16:20:40.985Z,1.93
2019-03-04T16:23:09.557Z,1.37
2019-03-04T16:25:38.114Z,1.80
2019-03-04T16:28:21.355Z,1.40
2019-03-04T16:30:50.747Z,1.40
2019-03-04T16:33:19.398Z,1.83
2019-03-04T16:35:48.193Z,1.77
2019-03-04T16:38:16.842Z,2.20
2019-03-04T16:40:45.477Z,1.30
2019-03-04T16:43:14.050Z,3.77
2019-03-04T16:45:42.938Z,1.30
2019-03-04T16:48:11.538Z,2.07
2019-03-04T16:50:45.242Z,1.23
2019-03-04T16:53:23.045Z,1.37
2019-03-04T16:55:51.601Z,2.63
2019-03-04T16:58:20.258Z,1.50
2019-03-04T17:00:48.884Z,1.30
2019-03-04T17:03:17.541Z,1.30
2019-03-04T17:05:46.257Z,1.13
2019-03-04T17:08:14.807Z,1.43
2019-03-04T17:10:43.449Z,2.87
2019-03-04T17:13:12.570Z,2.53
2019-03-04T17:15:41.222Z,2.60
2019-03-04T17:18:09.777Z,3.30
2019-03-04T17:20:38.367Z,1.93
2019-03-04T17:23:07.694Z,2.37
2019-03-04T17:25:36.402Z,2.63
2019-03-04T17:28:04.949Z,3.73
2019-03-04T17:30:33.522Z,1.70
2019-03-04T17:33:02.077Z,3.37
2019-03-04T17:35:30.650Z,2.80
2019-03-04T17:37:59.251Z,2.13
2019-03-04T17:40:29.829Z,4.17
2019-03-04T17:42:58.383Z,2.63
2019-03-04T17:45:28.298Z,2.70
2019-03-04T17:47:56.850Z,2.40
2019-03-04T17:50:31.049Z,3.80
2019-03-04T17:52:59.890Z,3.87
2019-03-04T17:55:28.531Z,3.80
2019-03-04T17:57:57.157Z,2.43
2019-03-04T18:00:25.899Z,3.57
2019-03-04T18:02:54.445Z,2.50
2019-03-04T18:05:23.033Z,2.63
2019-03-04T18:07:51.569Z,1.83
2019-03-04T18:10:20.210Z,4.90
2019-03-04T18:12:48.918Z,3.50
2019-03-04T18:15:25.642Z,2.97
2019-03-04T18:17:54.263Z,2.77
2019-03-04T18:20:22.837Z,5.93
2019-03-04T18:22:51.391Z,2.70
2019-03-04T18:25:29.091Z,5.17
2019-03-04T18:28:00.968Z,4.00
2019-03-04T18:30:47.750Z,3.83
2019-03-04T18:33:37.321Z,2.83
2019-03-04T18:36:14.878Z,3.37
2019-03-04T18:38:52.407Z,5.43
2019-03-04T18:41:32.739Z,4.00
2019-03-04T18:44:13.153Z,5.00
2019-03-04T18:46:59.771Z,5.10
2019-03-04T18:49:28.349Z,3.93
2019-03-04T18:51:56.969Z,5.30
2019-03-04T18:54:25.550Z,3.73
2019-03-04T18:56:54.113Z,4.57
2019-03-04T18:59:22.683Z,5.40
2019-03-04T19:01:51.238Z,3.13
2019-03-04T19:04:19.810Z,3.93
2019-03-04T19:06:48.376Z,4.97
2019-03-04T19:09:16.960Z,4.33
2019-03-04T19:11:45.511Z,4.13
2019-03-04T19:14:14.133Z,5.53
2019-03-04T19:16:42.712Z,5.90
2019-03-04T19:19:11.265Z,4.13
2019-03-04T19:21:39.842Z,5.00
2019-03-04T19:24:08.394Z,3.10
2019-03-04T19:26:36.966Z,5.47
2019-03-04T19:29:05.522Z,4.47
2019-03-04T19:31:34.128Z,5.80
2019-03-04T19:34:02.651Z,3.80
2019-03-04T19:36:31.230Z,5.27
2019-03-04T19:38:59.851Z,4.63
2019-03-04T19:41:28.426Z,4.60
2019-03-04T19:43:56.991Z,7.03
2019-03-04T19:46:26.034Z,4.37
2019-03-04T19:48:54.642Z,6.57
2019-03-04T19:51:23.214Z,6.17
2019-03-04T19:53:51.767Z,5.03
2019-03-04T19:56:20.347Z,7.17
2019-03-04T19:58:48.899Z,6.80
2019-03-04T20:01:17.618Z,4.77
2019-03-04T20:03:46.166Z,6.10
2019-03-04T20:06:14.810Z,9.20
2019-03-04T20:08:43.430Z,4.63
2019-03-04T20:11:12.080Z,3.00
2019-03-04T20:13:40.906Z,4.97
2019-03-04T20:16:09.486Z,5.50
2019-03-04T20:18:38.038Z,4.80
2019-03-04T20:21:07.554Z,3.07
2019-03-04T20:23:36.114Z,4.03
2019-03-04T20:26:04.758Z,5.33
2019-03-04T20:28:33.311Z,4.63
2019-03-04T20:31:01.891Z,6.97
2019-03-04T20:33:30.454Z,6.87
2019-03-04T20:35:59.103Z,4.50
2019-03-04T20:38:33.606Z,6.10
2019-03-04T20:41:02.146Z,7.23
2019-03-04T20:43:30.766Z,6.30
2019-03-04T20:45:59.346Z,7.60
2019-03-04T20:48:27.899Z,5.53
2019-03-04T20:50:56.473Z,4.33
2019-03-04T20:53:25.102Z,5.43
2019-03-04T20:55:53.679Z,4.90
2019-03-04T20:58:22.302Z,7.23
2019-03-04T21:00:50.874Z,6.83
2019-03-04T21:03:19.498Z,5.33
2019-03-04T21:05:48.142Z,10.30
2019-03-04T21:08:16.862Z,4.63
2019-03-04T21:10:45.503Z,5.63
2019-03-04T21:13:18.650Z,5.17
2019-03-04T21:15:47.228Z,4.67
2019-03-04T21:18:15.781Z,6.30
2019-03-04T21:20:44.731Z,5.07
2019-03-04T21:23:13.285Z,7.73
2019-03-04T21:26:09.286Z,6.00
2019-03-04T21:28:52.782Z,6.87
2019-03-04T21:31:33.206Z,4.50
2019-03-04T21:34:11.423Z,4.27
2019-03-04T21:36:59.698Z,6.47
2019-03-04T21:39:52.195Z,5.73
2019-03-04T21:42:23.848Z,5.83
2019-03-04T21:45:01.531Z,7.50
2019-03-04T21:47:44.205Z,5.87
2019-03-04T21:50:19.406Z,5.40
2019-03-04T21:53:07.345Z,6.53
2019-03-04T21:55:39.005Z,5.63
2019-03-04T21:58:07.555Z,5.20
2019-03-04T22:00:37.434Z,6.60
2019-03-04T22:03:11.906Z,5.63
2019-03-04T22:05:49.858Z,4.97
2019-03-04T22:08:10.762Z,8.03
2019-03-04T22:10:39.467Z,4.57
2019-03-04T22:13:08.129Z,4.60
2019-03-04T22:15:36.750Z,7.40
2019-03-04T22:18:06.165Z,8.73
2019-03-04T22:20:34.873Z,7.77
2019-03-04T22:23:03.591Z,6.93
2019-03-04T22:25:32.150Z,7.93
2019-03-04T22:28:00.794Z,6.67
2019-03-04T22:30:29.345Z,6.27
2019-03-04T22:32:57.947Z,10.30
2019-03-04T22:35:26.547Z,5.63
2019-03-04T22:37:55.407Z,5.90
2019-03-04T22:40:26.491Z,5.93
2019-03-04T22:42:55.067Z,7.87
2019-03-04T22:45:23.686Z,5.57
2019-03-04T22:47:52.704Z,6.33
2019-03-04T22:50:22.327Z,6.80
2019-03-04T22:52:50.958Z,5.03
2019-03-04T22:55:25.262Z,6.50
2019-03-04T22:57:53.834Z,6.17
2019-03-04T23:00:54.022Z,7.03
2019-03-04T23:03:25.104Z,4.77
2019-03-04T23:05:59.440Z,5.97
2019-03-04T23:08:28.011Z,7.57
2019-03-04T23:10:56.639Z,3.80
2019-03-04T23:13:34.290Z,6.87
2019-03-04T23:16:03.283Z,5.03
2019-03-04T23:18:31.862Z,4.43
2019-03-04T23:21:00.417Z,4.20
2019-03-04T23:23:28.994Z,6.03
2019-03-04T23:25:57.550Z,5.67
2019-03-04T23:28:26.138Z,7.20
2019-03-04T23:30:54.689Z,4.30
2019-03-04T23:33:23.263Z,5.50
2019-03-04T23:35:51.823Z,6.00
2019-03-04T23:38:20.394Z,5.10
2019-03-04T23:40:48.946Z,3.80
2019-03-04T23:43:17.528Z,6.17
2019-03-04T23:45:46.082Z,6.67
2019-03-04T23:48:14.734Z,4.27
2019-03-04T23:50:43.290Z,5.03
2019-03-04T23:53:11.965Z,6.90
2019-03-04T23:55:40.485Z,5.53
2019-03-04T23:58:09.062Z,4.30
